Terminal Aerodrome Forecast
Issued by NWS

Home | Current Version | Previous Version | Text Only | Print | Product List | Glossary On
Versions: 1 2 3 4 5 6 7 8 9 10 11 12 13 14 15 16 17 18 19 20 21 22 23 24 25
000
FTUS46 KSEW 242300
TAFSEA
TAF
KSEA 242320Z 2500/2606 23006KT P6SM BKN022 BKN040
     FM250200 30005KT P6SM BKN018 OVC040
     FM250500 VRB04KT P6SM OVC018
      TEMPO 2512/2516 -DZ OVC012
     FM252100 21005KT P6SM BKN025 BKN045
     FM252300 23006KT P6SM BKN045=

USA.gov is the U.S. government's official web portal to all federal, state and local government web resources and services.